Terminal Aerodrome Forecast
Issued by NWS

Home | Current Version | Previous Version | Text Only | Print | Product List | Glossary On
Versions: 1 2 3 4 5 6 7 8 9 10 11 12 13 14 15 16 17 18 19 20 21 22 23 24 25
000
FTUS43 KSGF 192300 CCA
TAFJLN
TAF COR
KJLN 192340Z 2000/2024 VRB03KT 4SM BR OVC004
     FM200200 VRB02KT 1/2SM FG VV001
      TEMPO 2010/2014 1/4SM FG
     FM201700 20005KT 4SM BR BKN008
     FM202100 20005KT P6SM FEW030 SCT250=

USA.gov is the U.S. government's official web portal to all federal, state and local government web resources and services.